Time;durP1;ratioP1;P1;durP2;ratioP2;P2;SDS_P1;SDS_P2;PMS_P1;PMS_P2;Temp;Humidity;BMP_temperature;BMP_pressure;BME280_temperature;BME280_humidity;BME280_pressure;Samples;Min_cycle;Max_cycle;Signal;HPM_P1;HPM_P2
2021/07/11 00:01:03;;;;;;;5.80;3.90;;;;;;;;;;3582192;40;20114;-68
2021/07/11 00:03:29;;;;;;;7.63;3.95;;;;;;;;;;3583346;40;20141;-68
2021/07/11 00:05:54;;;;;;;6.65;3.78;;;;;;;;;;3583298;40;20403;-68
2021/07/11 00:08:20;;;;;;;8.70;3.88;;;;;;;;;;3583512;40;20467;-68
2021/07/11 00:10:45;;;;;;;6.43;4.32;;;;;;;;;;3583339;40;20094;-68
2021/07/11 00:13:10;;;;;;;5.97;3.85;;;;;;;;;;3582910;40;20033;-69
2021/07/11 00:15:36;;;;;;;6.55;3.78;;;;;;;;;;3582385;40;20481;-68
2021/07/11 00:18:02;;;;;;;7.22;4.28;;;;;;;;;;3583276;40;20029;-67
2021/07/11 00:20:28;;;;;;;6.80;4.03;;;;;;;;;;3583816;40;20032;-68
2021/07/11 00:22:55;;;;;;;5.40;4.28;;;;;;;;;;3582430;40;20051;-67
2021/07/11 00:25:21;;;;;;;6.05;4.57;;;;;;;;;;3573566;40;20453;-67
2021/07/11 00:27:47;;;;;;;6.80;4.38;;;;;;;;;;3584038;40;20311;-68
2021/07/11 00:30:14;;;;;;;6.22;4.65;;;;;;;;;;3583968;40;20032;-67
2021/07/11 00:32:39;;;;;;;7.05;4.60;;;;;;;;;;3584166;40;20054;-67
2021/07/11 00:35:06;;;;;;;9.05;3.85;;;;;;;;;;3584165;40;20276;-67
2021/07/11 00:37:31;;;;;;;5.78;4.20;;;;;;;;;;3574798;40;20036;-65
2021/07/11 00:39:57;;;;;;;9.52;5.18;;;;;;;;;;3583094;40;20116;-67
2021/07/11 00:42:22;;;;;;;8.00;4.40;;;;;;;;;;3583439;40;20036;-67
2021/07/11 00:44:48;;;;;;;6.68;4.53;;;;;;;;;;3582921;40;20685;-66
2021/07/11 00:47:13;;;;;;;6.18;4.72;;;;;;;;;;3581207;40;20039;-66
2021/07/11 00:49:42;;;;;;;5.15;4.45;;;;;;;;;;3582853;40;20048;-66
2021/07/11 00:52:13;;;;;;;6.60;4.53;;;;;;;;;;3581655;40;20364;-68
2021/07/11 00:54:38;;;;;;;7.38;4.35;;;;;;;;;;3582901;40;20309;-68
2021/07/11 00:57:05;;;;;;;16.30;4.15;;;;;;;;;;3583425;40;20387;-65
2021/07/11 00:59:32;;;;;;;6.57;3.97;;;;;;;;;;3582077;40;20032;-66
2021/07/11 01:02:08;;;;;;;6.72;4.15;;;;;;;;;;3577240;40;20044;-67
2021/07/11 01:04:50;;;;;;;8.25;3.78;;;;;;;;;;3584156;40;20051;-66
2021/07/11 01:07:22;;;;;;;8.82;4.25;;;;;;;;;;3573143;40;20037;-66
2021/07/11 01:09:51;;;;;;;10.38;4.22;;;;;;;;;;3574256;40;20425;-66
2021/07/11 01:12:28;;;;;;;8.50;4.05;;;;;;;;;;3581238;40;20098;-66
2021/07/11 01:14:56;;;;;;;8.13;4.20;;;;;;;;;;3580087;40;20025;-66
2021/07/11 01:17:25;;;;;;;4.95;3.30;;;;;;;;;;3583041;40;20103;-66
2021/07/11 01:19:50;;;;;;;4.95;3.58;;;;;;;;;;3573157;40;20025;-67
2021/07/11 01:22:19;;;;;;;8.02;3.92;;;;;;;;;;3582172;40;20072;-66
2021/07/11 01:25:00;;;;;;;5.85;3.80;;;;;;;;;;3583199;40;20046;-66
2021/07/11 01:27:26;;;;;;;4.85;3.00;;;;;;;;;;3582336;40;20037;-66
2021/07/11 01:29:53;;;;;;;5.88;3.10;;;;;;;;;;3583995;40;20037;-66
2021/07/11 01:32:18;;;;;;;5.32;2.80;;;;;;;;;;3583977;40;20268;-66
2021/07/11 01:34:44;;;;;;;6.38;3.75;;;;;;;;;;3583379;40;20043;-67
2021/07/11 01:37:10;;;;;;;8.43;2.85;;;;;;;;;;3583828;40;20040;-66
2021/07/11 01:39:37;;;;;;;4.20;2.92;;;;;;;;;;3584155;40;20072;-66
2021/07/11 01:42:03;;;;;;;7.00;3.50;;;;;;;;;;3578172;40;20051;-66
2021/07/11 01:44:30;;;;;;;5.95;2.92;;;;;;;;;;3583472;40;20024;-66
2021/07/11 01:46:56;;;;;;;5.57;3.83;;;;;;;;;;3582433;40;20033;-66
2021/07/11 01:49:21;;;;;;;5.30;3.60;;;;;;;;;;3583134;40;20054;-66
2021/07/11 01:51:48;;;;;;;5.43;2.97;;;;;;;;;;3580570;40;20146;-66
2021/07/11 01:54:14;;;;;;;8.57;3.83;;;;;;;;;;3581240;40;20400;-66
2021/07/11 01:56:40;;;;;;;7.18;3.20;;;;;;;;;;3583096;40;20061;-67
2021/07/11 01:59:10;;;;;;;5.75;3.42;;;;;;;;;;3582505;40;20068;-66
2021/07/11 02:01:36;;;;;;;4.15;2.88;;;;;;;;;;3580598;40;20041;-66
2021/07/11 02:04:02;;;;;;;5.93;2.47;;;;;;;;;;3583911;40;20036;-67
2021/07/11 02:06:28;;;;;;;5.07;2.60;;;;;;;;;;3583725;40;20056;-66
2021/07/11 02:08:53;;;;;;;6.07;2.78;;;;;;;;;;3583673;40;20265;-67
2021/07/11 02:11:24;;;;;;;3.17;1.90;;;;;;;;;;3576088;40;20073;-66
2021/07/11 02:14:00;;;;;;;3.13;2.20;;;;;;;;;;3581972;40;20268;-67
2021/07/11 02:16:52;;;;;;;4.70;2.35;;;;;;;;;;3583068;40;20039;-66
2021/07/11 02:19:19;;;;;;;4.22;2.60;;;;;;;;;;3583131;40;20051;-66
2021/07/11 02:21:46;;;;;;;3.95;2.75;;;;;;;;;;3585395;40;20069;-66
2021/07/11 02:24:12;;;;;;;4.20;2.55;;;;;;;;;;3580170;40;20034;-66
2021/07/11 02:26:39;;;;;;;4.72;2.45;;;;;;;;;;3582477;40;20043;-67
2021/07/11 02:29:05;;;;;;;4.57;2.63;;;;;;;;;;3585452;40;20044;-67
2021/07/11 02:31:35;;;;;;;6.40;2.92;;;;;;;;;;3585076;40;20144;-67
2021/07/11 02:34:01;;;;;;;6.60;2.53;;;;;;;;;;3583198;40;20315;-67
2021/07/11 02:36:29;;;;;;;4.45;2.60;;;;;;;;;;3583010;40;20045;-67
2021/07/11 02:39:17;;;;;;;7.55;2.80;;;;;;;;;;3576926;40;20096;-67
2021/07/11 02:41:55;;;;;;;5.65;2.40;;;;;;;;;;3583828;40;20143;-66
2021/07/11 02:44:22;;;;;;;4.85;2.33;;;;;;;;;;3583531;40;20089;-67
2021/07/11 02:46:53;;;;;;;5.35;2.55;;;;;;;;;;3582615;40;20044;-67
2021/07/11 02:49:23;;;;;;;5.13;2.83;;;;;;;;;;3584651;40;20068;-67
2021/07/11 02:51:52;;;;;;;4.80;2.73;;;;;;;;;;3583661;40;20033;-67
2021/07/11 02:54:21;;;;;;;4.07;2.22;;;;;;;;;;3584298;40;20151;-67
2021/07/11 02:56:49;;;;;;;10.55;2.60;;;;;;;;;;3582966;40;20049;-67
2021/07/11 02:59:16;;;;;;;7.05;2.90;;;;;;;;;;3582117;40;20108;-67
2021/07/11 03:01:42;;;;;;;6.97;2.90;;;;;;;;;;3583193;40;20054;-66
2021/07/11 03:04:11;;;;;;;6.35;2.45;;;;;;;;;;3584859;40;20032;-66
2021/07/11 03:06:37;;;;;;;6.45;2.63;;;;;;;;;;3584506;40;20048;-66
2021/07/11 03:09:04;;;;;;;9.52;2.90;;;;;;;;;;3581692;40;20126;-66
2021/07/11 03:11:31;;;;;;;14.93;2.95;;;;;;;;;;3583958;40;20064;-67
2021/07/11 03:13:59;;;;;;;8.00;2.92;;;;;;;;;;3582590;40;20068;-67
2021/07/11 03:16:25;;;;;;;4.55;2.80;;;;;;;;;;3585055;40;20155;-67
2021/07/11 03:18:53;;;;;;;3.83;3.00;;;;;;;;;;3582896;40;20126;-68
2021/07/11 03:21:22;;;;;;;8.00;3.20;;;;;;;;;;3583709;40;20024;-67
2021/07/11 03:23:48;;;;;;;4.85;3.20;;;;;;;;;;3583860;40;20044;-67
2021/07/11 03:26:13;;;;;;;10.18;3.08;;;;;;;;;;3584106;40;20033;-67
2021/07/11 03:28:41;;;;;;;5.57;3.25;;;;;;;;;;3583231;40;20096;-67
2021/07/11 03:31:10;;;;;;;14.15;3.25;;;;;;;;;;3582676;40;20036;-67
2021/07/11 03:33:42;;;;;;;5.85;2.85;;;;;;;;;;3585403;40;20044;-67
2021/07/11 03:36:10;;;;;;;4.80;3.00;;;;;;;;;;3575354;40;20554;-67
2021/07/11 03:38:46;;;;;;;5.13;3.25;;;;;;;;;;3584362;40;20040;-67
2021/07/11 03:41:15;;;;;;;5.50;3.13;;;;;;;;;;3583097;40;20364;-67
2021/07/11 03:43:44;;;;;;;7.15;3.85;;;;;;;;;;3575226;40;20036;-67
2021/07/11 03:46:12;;;;;;;11.38;3.97;;;;;;;;;;3584286;40;20024;-67
2021/07/11 03:48:48;;;;;;;4.22;2.90;;;;;;;;;;3583913;40;20068;-67
2021/07/11 03:51:15;;;;;;;4.32;2.88;;;;;;;;;;3583033;40;20064;-67
2021/07/11 03:53:43;;;;;;;6.55;3.15;;;;;;;;;;3579956;40;20465;-67
2021/07/11 03:56:09;;;;;;;7.20;3.55;;;;;;;;;;3575983;40;20048;-67
2021/07/11 03:58:38;;;;;;;12.40;3.97;;;;;;;;;;3584970;40;20056;-67
2021/07/11 04:01:05;;;;;;;4.72;3.53;;;;;;;;;;3584523;40;20044;-67
2021/07/11 04:03:35;;;;;;;6.97;3.47;;;;;;;;;;3582687;40;20066;-67
2021/07/11 04:06:02;;;;;;;4.97;3.47;;;;;;;;;;3582833;40;20137;-67
2021/07/11 04:08:28;;;;;;;6.10;3.63;;;;;;;;;;3584505;40;20130;-66
2021/07/11 04:10:57;;;;;;;7.78;3.75;;;;;;;;;;3583259;40;20033;-66
2021/07/11 04:13:23;;;;;;;10.70;3.67;;;;;;;;;;3583406;40;20065;-67
2021/07/11 04:15:51;;;;;;;5.10;3.90;;;;;;;;;;3582606;40;20130;-67
2021/07/11 04:18:20;;;;;;;7.97;3.92;;;;;;;;;;3583465;40;20136;-67
2021/07/11 04:20:48;;;;;;;10.48;3.67;;;;;;;;;;3583468;40;20021;-67
2021/07/11 04:23:14;;;;;;;9.13;3.95;;;;;;;;;;3583601;40;20040;-67
2021/07/11 04:25:42;;;;;;;7.28;3.42;;;;;;;;;;3581904;40;20446;-66
2021/07/11 04:28:09;;;;;;;8.90;3.80;;;;;;;;;;3583595;40;20399;-66
2021/07/11 04:30:36;;;;;;;10.10;3.58;;;;;;;;;;3584546;40;20033;-66
2021/07/11 04:33:02;;;;;;;11.40;3.65;;;;;;;;;;3581790;40;20036;-66
2021/07/11 04:35:28;;;;;;;8.10;4.93;;;;;;;;;;3580828;40;20033;-66
2021/07/11 04:37:53;;;;;;;5.95;4.60;;;;;;;;;;3581949;40;20087;-66
2021/07/11 04:40:19;;;;;;;9.70;3.85;;;;;;;;;;3583509;40;20032;-66
2021/07/11 04:42:46;;;;;;;13.45;5.38;;;;;;;;;;3583975;40;20074;-66
2021/07/11 04:45:12;;;;;;;10.40;6.85;;;;;;;;;;3582355;40;20028;-66
2021/07/11 04:47:38;;;;;;;8.20;4.45;;;;;;;;;;3581668;40;20057;-66
2021/07/11 04:50:05;;;;;;;8.10;5.05;;;;;;;;;;3583136;40;20305;-66
2021/07/11 04:52:31;;;;;;;7.53;4.75;;;;;;;;;;3584898;40;20032;-66
2021/07/11 04:54:57;;;;;;;5.43;3.67;;;;;;;;;;3583287;40;20062;-65
2021/07/11 04:57:23;;;;;;;7.75;3.58;;;;;;;;;;3582243;40;20372;-65
2021/07/11 04:59:48;;;;;;;6.13;3.58;;;;;;;;;;3581990;40;20692;-65
2021/07/11 05:02:14;;;;;;;18.00;3.30;;;;;;;;;;3573858;40;20066;-65
2021/07/11 05:04:39;;;;;;;13.45;3.78;;;;;;;;;;3583829;40;20049;-65
2021/07/11 05:07:05;;;;;;;5.82;3.60;;;;;;;;;;3584606;40;20083;-66
2021/07/11 05:09:31;;;;;;;4.25;3.17;;;;;;;;;;3573965;40;20053;-65
2021/07/11 05:11:56;;;;;;;10.48;3.80;;;;;;;;;;3584264;40;20769;-65
2021/07/11 05:14:22;;;;;;;6.90;3.83;;;;;;;;;;3582477;40;20075;-65
2021/07/11 05:16:47;;;;;;;10.68;3.90;;;;;;;;;;3580535;40;20042;-66
2021/07/11 05:19:13;;;;;;;9.68;4.18;;;;;;;;;;3581956;40;20029;-65
2021/07/11 05:21:38;;;;;;;10.95;4.35;;;;;;;;;;3580831;40;20033;-65
2021/07/11 05:24:04;;;;;;;10.77;3.63;;;;;;;;;;3581498;40;20537;-65
2021/07/11 05:26:30;;;;;;;8.63;3.92;;;;;;;;;;3576848;40;20036;-65
2021/07/11 05:28:55;;;;;;;12.32;4.22;;;;;;;;;;3584034;40;20033;-65
2021/07/11 05:31:21;;;;;;;8.00;3.55;;;;;;;;;;3581847;40;20360;-65
2021/07/11 05:33:46;;;;;;;15.93;4.30;;;;;;;;;;3583358;40;20032;-65
2021/07/11 05:36:12;;;;;;;13.98;4.38;;;;;;;;;;3584115;40;20311;-65
2021/07/11 05:38:38;;;;;;;6.50;4.10;;;;;;;;;;3582086;40;20033;-65
2021/07/11 05:41:04;;;;;;;6.88;3.88;;;;;;;;;;3582135;40;20317;-65
2021/07/11 05:43:30;;;;;;;7.88;3.95;;;;;;;;;;3583228;40;20042;-65
2021/07/11 05:45:56;;;;;;;11.73;4.07;;;;;;;;;;3582662;40;20037;-65
2021/07/11 05:48:21;;;;;;;7.97;4.32;;;;;;;;;;3582687;40;20048;-65
2021/07/11 05:50:47;;;;;;;6.18;4.10;;;;;;;;;;3584042;40;20041;-66
2021/07/11 05:53:13;;;;;;;13.73;4.07;;;;;;;;;;3581460;40;20063;-66
2021/07/11 05:55:41;;;;;;;8.98;5.90;;;;;;;;;;3585043;40;20067;-66
2021/07/11 05:58:07;;;;;;;10.20;5.53;;;;;;;;;;3582497;40;20060;-65
2021/07/11 06:04:41;;;;;;;6.80;5.00;;;;;;;;;;3568442;40;20021;-66
2021/07/11 06:07:27;;;;;;;9.15;5.07;;;;;;;;;;3585264;40;20459;-65
2021/07/11 06:10:20;;;;;;;10.48;4.43;;;;;;;;;;3583277;40;20368;-65
2021/07/11 06:13:27;;;;;;;14.90;9.27;;;;;;;;;;3582398;40;20142;-65
2021/07/11 06:21:00;;;;;;;17.67;6.53;;;;;;;;;;3510742;40;20055;-65
2021/07/11 06:31:01;;;;;;;6.13;3.60;;;;;;;;;;3552973;40;20045;-65
2021/07/11 06:34:22;;;;;;;6.18;4.43;;;;;;;;;;3583278;40;20122;-65
2021/07/11 06:37:38;;;;;;;7.78;4.03;;;;;;;;;;3580210;40;20122;-66
2021/07/11 06:44:34;;;;;;;6.13;4.20;;;;;;;;;;3577553;40;20315;-66
2021/07/11 06:50:47;;;;;;;7.57;4.97;;;;;;;;;;3581782;40;20048;-65
2021/07/11 06:56:51;;;;;;;8.50;4.68;;;;;;;;;;3580815;40;20142;-66
2021/07/11 07:07:13;;;;;;;6.28;4.03;;;;;;;;;;3583485;40;20052;-66
2021/07/11 07:10:13;;;;;;;8.38;4.05;;;;;;;;;;3576823;40;20025;-66
2021/07/11 07:14:09;;;;;;;;;;;;;;;;;;;;;
2021/07/11 07:17:31;;;;;;;8.27;3.90;;;;;;;;;;3571702;40;20049;-66
2021/07/11 07:20:28;;;;;;;7.80;4.28;;;;;;;;;;3582745;40;20037;-65
2021/07/11 07:23:32;;;;;;;5.47;3.90;;;;;;;;;;3583026;40;20077;-65
2021/07/11 07:26:56;;;;;;;5.10;4.00;;;;;;;;;;3577092;40;20041;-64
2021/07/11 07:30:25;;;;;;;;;;;;;;;;;;;;;
2021/07/11 07:37:32;;;;;;;8.38;3.92;;;;;;;;;;3584137;40;20356;-64
2021/07/11 07:40:49;;;;;;;7.50;3.83;;;;;;;;;;3577058;40;20048;-64
2021/07/11 07:43:39;;;;;;;5.10;4.07;;;;;;;;;;3581937;40;20055;-64
2021/07/11 07:56:45;;;;;;;9.25;3.83;;;;;;;;;;3549261;40;20028;-64
2021/07/11 08:00:15;;;;;;;;;;;;;;;;;;;;;
2021/07/11 08:03:54;;;;;;;5.10;3.33;;;;;;;;;;3567613;40;20037;-64
2021/07/11 08:12:00;;;;;;;7.28;4.07;;;;;;;;;;3541481;40;20050;-64
2021/07/11 08:15:03;;;;;;;6.30;4.22;;;;;;;;;;3552914;40;20099;-64
2021/07/11 08:21:12;;;;;;;6.03;4.22;;;;;;;;;;3571662;40;20047;-64
2021/07/11 08:24:02;;;;;;;6.13;3.75;;;;;;;;;;3585375;40;20044;-64
2021/07/11 08:30:31;;;;;;;5.97;4.22;;;;;;;;;;3577674;40;20346;-64
2021/07/11 08:33:57;;;;;;;8.15;4.57;;;;;;;;;;3545751;40;20344;-64
2021/07/11 08:37:44;;;;;;;11.02;4.40;;;;;;;;;;3572699;40;20032;-64
2021/07/11 08:44:52;;;;;;;7.05;3.92;;;;;;;;;;3582727;40;20051;-64
2021/07/11 08:48:25;;;;;;;8.88;4.03;;;;;;;;;;3544282;40;20033;-64
2021/07/11 08:56:01;;;;;;;;;;;;;;;;;;;;;
2021/07/11 08:59:51;;;;;;;7.07;4.27;;;;;;;;;;3581091;40;20065;-68
2021/07/11 09:02:57;;;;;;;5.55;3.70;;;;;;;;;;3582370;40;20498;-64
2021/07/11 09:09:57;;;;;;;;;;;;;;;;;;;;;
2021/07/11 09:13:14;;;;;;;5.97;4.00;;;;;;;;;;3524514;40;20150;-64
2021/07/11 09:16:57;;;;;;;;;;;;;;;;;;;;;
2021/07/11 09:19:53;;;;;;;5.03;3.87;;;;;;;;;;3581903;40;20122;-64
2021/07/11 09:27:45;;;;;;;7.05;3.47;;;;;;;;;;3576241;40;20079;-64
2021/07/11 09:31:06;;;;;;;8.80;3.40;;;;;;;;;;3575343;40;20122;-64
2021/07/11 09:34:42;;;;;;;5.05;3.75;;;;;;;;;;3567821;40;20037;-64
2021/07/11 09:38:24;;;;;;;;;;;;;;;;;;;;;
2021/07/11 09:45:54;;;;;;;;;;;;;;;;;;;;;
2021/07/11 10:05:32;;;;;;;7.68;4.55;;;;;;;;;;3537375;40;20050;-63
2021/07/11 10:08:52;;;;;;;5.05;4.03;;;;;;;;;;3532481;40;20023;-63
2021/07/11 10:12:31;;;;;;;6.32;4.15;;;;;;;;;;3545605;40;20034;-61
2021/07/11 10:15:14;;;;;;;5.57;4.15;;;;;;;;;;3539387;40;20349;-63
2021/07/11 10:18:00;;;;;;;5.90;4.55;;;;;;;;;;3551733;40;20056;-62
2021/07/11 10:21:20;;;;;;;5.78;4.35;;;;;;;;;;3562457;40;20056;-62
2021/07/11 10:24:30;;;;;;;6.32;4.10;;;;;;;;;;3574402;40;20375;-62
2021/07/11 10:27:45;;;;;;;5.30;4.03;;;;;;;;;;3581419;40;20036;-61
2021/07/11 10:30:19;;;;;;;6.03;4.20;;;;;;;;;;3580795;40;20066;-61
2021/07/11 10:33:57;;;;;;;8.35;6.65;;;;;;;;;;3519488;40;20272;-60
2021/07/11 10:37:16;;;;;;;7.68;4.43;;;;;;;;;;3552705;40;20028;-61
2021/07/11 10:40:40;;;;;;;;;;;;;;;;;;;;;
2021/07/11 10:43:49;;;;;;;5.30;4.20;;;;;;;;;;3582867;40;20380;-60
2021/07/11 10:47:05;;;;;;;6.15;4.43;;;;;;;;;;3550448;40;20041;-61
2021/07/11 11:01:44;;;;;;;10.60;9.60;;;;;;;;;;3579152;40;20033;-60
2021/07/11 11:05:13;;;;;;;;;;;;;;;;;;;;;
2021/07/11 11:08:40;;;;;;;;;;;;;;;;;;;;;
2021/07/11 11:11:30;;;;;;;6.75;5.63;;;;;;;;;;3546562;40;20047;-61
2021/07/11 11:15:06;;;;;;;7.25;6.38;;;;;;;;;;3583910;40;20052;-61
2021/07/11 11:18:38;;;;;;;7.63;4.80;;;;;;;;;;3550555;40;20051;-61
2021/07/11 11:22:19;;;;;;;5.13;4.35;;;;;;;;;;3545118;40;20412;-61
2021/07/11 11:25:20;;;;;;;5.88;4.47;;;;;;;;;;3546714;40;20337;-62
2021/07/11 11:28:39;;;;;;;7.38;5.05;;;;;;;;;;3549833;40;20084;-62
2021/07/11 11:32:01;;;;;;;;;;;;;;;;;;3547165;40;20044;-62
2021/07/11 11:34:59;;;;;;;6.25;4.78;;;;;;;;;;3559639;40;19940;-61
2021/07/11 11:38:11;;;;;;;6.70;4.97;;;;;;;;;;3583964;40;20025;-60
2021/07/11 11:41:34;;;;;;;;;;;;;;;;;;;;;
2021/07/11 11:44:51;;;;;;;7.22;5.10;;;;;;;;;;3575547;40;20126;-61
2021/07/11 11:48:16;;;;;;;6.57;5.35;;;;;;;;;;3562731;40;20134;-62
2021/07/11 11:51:27;;;;;;;12.40;4.63;;;;;;;;;;3553105;40;20054;-61
2021/07/11 11:54:58;;;;;;;7.45;4.65;;;;;;;;;;3576574;40;20040;-62
2021/07/11 11:58:11;;;;;;;5.68;4.32;;;;;;;;;;3582905;40;20131;-61
2021/07/11 12:01:37;;;;;;;5.38;4.35;;;;;;;;;;3545893;40;20043;-61
2021/07/11 12:04:40;;;;;;;6.05;4.40;;;;;;;;;;3554283;40;20048;-62
2021/07/11 12:07:22;;;;;;;5.45;4.05;;;;;;;;;;3579876;40;20045;-61
2021/07/11 12:10:45;;;;;;;5.95;3.80;;;;;;;;;;3566879;40;20049;-60
2021/07/11 12:13:43;;;;;;;4.80;3.55;;;;;;;;;;3567353;40;20049;-60
2021/07/11 12:20:54;;;;;;;4.88;3.65;;;;;;;;;;3541407;40;20136;-61
2021/07/11 12:23:43;;;;;;;5.03;3.53;;;;;;;;;;3542295;40;20078;-60
2021/07/11 12:37:20;;;;;;;8.48;4.30;;;;;;;;;;3555922;40;20054;-60
2021/07/11 12:44:03;;;;;;;4.88;3.70;;;;;;;;;;3576121;40;20047;-60
2021/07/11 12:50:48;;;;;;;5.82;3.45;;;;;;;;;;3581025;40;20040;-60
2021/07/11 12:57:25;;;;;;;9.02;3.80;;;;;;;;;;3579189;40;20538;-60
2021/07/11 13:00:50;;;;;;;5.32;3.47;;;;;;;;;;3542647;40;20018;-61
2021/07/11 13:04:10;;;;;;;15.38;3.20;;;;;;;;;;3541770;40;20039;-61
2021/07/11 13:07:46;;;;;;;4.68;2.95;;;;;;;;;;3543731;40;20086;-61
2021/07/11 13:11:11;;;;;;;;;;;;;;;;;;;;;
2021/07/11 13:14:55;;;;;;;4.97;3.15;;;;;;;;;;3543700;40;20123;-60
2021/07/11 13:18:01;;;;;;;4.63;3.08;;;;;;;;;;3540367;40;20082;-60
2021/07/11 13:21:13;;;;;;;3.67;2.45;;;;;;;;;;3503925;40;20033;-60
2021/07/11 13:24:13;;;;;;;3.83;2.45;;;;;;;;;;3525664;40;20145;-60
2021/07/11 13:27:25;;;;;;;;;;;;;;;;;;;;;
2021/07/11 13:35:02;;;;;;;4.85;3.60;;;;;;;;;;3528372;40;20030;-61
2021/07/11 13:38:13;;;;;;;6.00;4.05;;;;;;;;;;3542463;40;20357;-61
2021/07/11 13:41:30;;;;;;;5.63;3.58;;;;;;;;;;3514393;40;20036;-60
2021/07/11 13:48:32;;;;;;;6.75;4.38;;;;;;;;;;3530252;40;20062;-61
2021/07/11 13:51:47;;;;;;;;;;;;;;;;;;;;;
2021/07/11 13:55:35;;;;;;;4.93;3.75;;;;;;;;;;3533621;40;20369;-60
2021/07/11 13:59:19;;;;;;;4.68;3.22;;;;;;;;;;3501583;40;20362;-60
2021/07/11 14:02:23;;;;;;;5.22;3.35;;;;;;;;;;3545256;40;20053;-60
2021/07/11 14:09:11;;;;;;;;;;;;;;;;;;;;;
2021/07/11 14:12:10;;;;;;;5.20;3.03;;;;;;;;;;3569702;40;20040;-60
2021/07/11 14:18:55;;;;;;;4.53;2.88;;;;;;;;;;3534644;40;20343;-60
2021/07/11 14:21:43;;;;;;;5.82;3.58;;;;;;;;;;3584661;40;20077;-60
2021/07/11 14:25:17;;;;;;;;;;;;;;;;;;;;;
2021/07/11 14:28:18;;;;;;;4.15;2.75;;;;;;;;;;3584898;40;20029;-60
2021/07/11 14:31:10;;;;;;;3.53;2.63;;;;;;;;;;3581789;40;20041;-60
2021/07/11 14:34:13;;;;;;;4.88;2.97;;;;;;;;;;3583273;40;20252;-59
2021/07/11 14:37:15;;;;;;;4.40;3.08;;;;;;;;;;3581210;40;20096;-60
2021/07/11 14:40:30;;;;;;;3.67;2.90;;;;;;;;;;3582317;40;20088;-60
2021/07/11 14:44:06;;;;;;;4.22;2.85;;;;;;;;;;3579425;40;20037;-60
2021/07/11 14:51:08;;;;;;;6.80;3.22;;;;;;;;;;3581756;40;20028;-60
2021/07/11 14:54:31;;;;;;;4.03;2.97;;;;;;;;;;3576619;40;20122;-60
2021/07/11 14:57:54;;;;;;;4.32;3.05;;;;;;;;;;3583296;40;20039;-60
2021/07/11 15:00:49;;;;;;;4.32;3.05;;;;;;;;;;3584086;40;20072;-60
2021/07/11 15:04:10;;;;;;;5.03;2.55;;;;;;;;;;3584379;40;20126;-60
2021/07/11 15:11:05;;;;;;;5.88;2.38;;;;;;;;;;3572796;40;20021;-60
2021/07/11 15:14:37;;;;;;;4.13;2.30;;;;;;;;;;3552635;40;20869;-60
2021/07/11 15:18:29;;;;;;;3.50;2.33;;;;;;;;;;3580847;40;20126;-60
2021/07/11 15:21:21;;;;;;;4.95;2.53;;;;;;;;;;3580740;40;20048;-60
2021/07/11 15:28:22;;;;;;;3.33;2.47;;;;;;;;;;3584020;40;20044;-60
2021/07/11 15:38:51;;;;;;;3.65;2.13;;;;;;;;;;3499155;41;20356;-60
2021/07/11 15:41:20;;;;;;;3.30;2.38;;;;;;;;;;3521533;40;20054;-70
2021/07/11 15:43:46;;;;;;;3.63;2.60;;;;;;;;;;3570353;40;20044;-68
2021/07/11 15:46:14;;;;;;;4.75;2.50;;;;;;;;;;3584248;40;20110;-68
2021/07/11 15:48:40;;;;;;;4.53;2.65;;;;;;;;;;3584368;40;20125;-61
2021/07/11 15:51:06;;;;;;;5.43;2.90;;;;;;;;;;3583438;40;20040;-59
2021/07/11 15:53:32;;;;;;;5.18;3.47;;;;;;;;;;3581564;40;20077;-59
2021/07/11 15:55:59;;;;;;;3.97;2.75;;;;;;;;;;3572891;40;20056;-59
2021/07/11 15:58:25;;;;;;;3.63;2.50;;;;;;;;;;3583739;40;20681;-59
2021/07/11 16:00:51;;;;;;;3.90;2.70;;;;;;;;;;3583329;40;20403;-59
2021/07/11 16:03:16;;;;;;;3.75;2.70;;;;;;;;;;3584008;40;20060;-59
2021/07/11 16:05:42;;;;;;;4.00;3.00;;;;;;;;;;3583057;40;20036;-61
2021/07/11 16:08:07;;;;;;;4.70;2.25;;;;;;;;;;3583480;40;20288;-59
2021/07/11 16:10:34;;;;;;;4.30;2.42;;;;;;;;;;3583143;40;20068;-59
2021/07/11 16:13:02;;;;;;;4.18;2.67;;;;;;;;;;3583051;40;20296;-59
2021/07/11 16:15:29;;;;;;;11.38;8.13;;;;;;;;;;3583775;40;20045;-59
2021/07/11 16:17:55;;;;;;;3.80;2.10;;;;;;;;;;3581631;40;20048;-60
2021/07/11 16:20:20;;;;;;;3.25;2.13;;;;;;;;;;3581496;40;20065;-60
2021/07/11 16:22:46;;;;;;;4.00;2.38;;;;;;;;;;3584261;40;20080;-60
2021/07/11 16:25:13;;;;;;;4.85;2.30;;;;;;;;;;3583134;40;20338;-60
2021/07/11 16:27:39;;;;;;;3.45;2.35;;;;;;;;;;3582959;40;20841;-60
2021/07/11 16:30:07;;;;;;;3.85;2.05;;;;;;;;;;3581385;40;20033;-60
2021/07/11 16:32:33;;;;;;;3.78;2.33;;;;;;;;;;3583448;40;20044;-60
2021/07/11 16:34:59;;;;;;;3.22;2.17;;;;;;;;;;3583770;40;20037;-60
2021/07/11 16:37:24;;;;;;;3.30;2.38;;;;;;;;;;3583724;40;20090;-60
2021/07/11 16:39:50;;;;;;;4.28;2.13;;;;;;;;;;3582890;40;20087;-60
2021/07/11 16:42:15;;;;;;;3.35;2.47;;;;;;;;;;3584238;40;20025;-59
2021/07/11 16:44:41;;;;;;;3.38;2.17;;;;;;;;;;3582281;40;20091;-60
2021/07/11 16:47:06;;;;;;;3.83;2.47;;;;;;;;;;3583600;40;20032;-60
2021/07/11 16:49:32;;;;;;;2.95;1.77;;;;;;;;;;3582929;40;20036;-61
2021/07/11 16:51:58;;;;;;;3.90;2.22;;;;;;;;;;3583288;40;20041;-60
2021/07/11 16:54:24;;;;;;;3.63;2.10;;;;;;;;;;3583981;40;20096;-60
2021/07/11 16:56:49;;;;;;;3.42;2.30;;;;;;;;;;3584569;40;20627;-60
2021/07/11 16:59:16;;;;;;;3.40;2.15;;;;;;;;;;3583729;40;20048;-60
2021/07/11 17:01:41;;;;;;;4.00;2.28;;;;;;;;;;3581084;40;20047;-61
2021/07/11 17:04:07;;;;;;;4.45;2.30;;;;;;;;;;3581670;40;20037;-61
2021/07/11 17:06:32;;;;;;;4.93;2.45;;;;;;;;;;3583159;40;20041;-61
2021/07/11 17:08:58;;;;;;;3.33;2.00;;;;;;;;;;3584747;40;20521;-61
2021/07/11 17:11:24;;;;;;;3.58;2.15;;;;;;;;;;3583398;40;20105;-61
2021/07/11 17:13:50;;;;;;;4.35;2.10;;;;;;;;;;3581782;40;20348;-61
2021/07/11 17:16:16;;;;;;;2.95;2.10;;;;;;;;;;3584021;40;20033;-61
2021/07/11 17:18:41;;;;;;;3.30;1.88;;;;;;;;;;3582221;40;20056;-61
2021/07/11 17:21:07;;;;;;;3.78;2.10;;;;;;;;;;3582512;40;20056;-62
2021/07/11 17:23:33;;;;;;;3.35;2.35;;;;;;;;;;3580978;40;20064;-60
2021/07/11 17:25:59;;;;;;;2.65;1.83;;;;;;;;;;3581535;40;20039;-59
2021/07/11 17:28:25;;;;;;;3.15;1.70;;;;;;;;;;3580220;40;20029;-61
2021/07/11 17:30:51;;;;;;;2.83;1.63;;;;;;;;;;3581799;40;20042;-61
2021/07/11 17:33:17;;;;;;;2.72;1.67;;;;;;;;;;3582212;40;20041;-61
2021/07/11 17:35:43;;;;;;;5.60;2.47;;;;;;;;;;3581562;40;20040;-61
2021/07/11 17:38:09;;;;;;;2.83;1.90;;;;;;;;;;3583786;40;20029;-60
2021/07/11 17:40:35;;;;;;;4.07;2.00;;;;;;;;;;3576827;40;20048;-60
2021/07/11 17:43:01;;;;;;;3.28;2.10;;;;;;;;;;3575912;40;20353;-62
2021/07/11 17:45:29;;;;;;;3.47;1.92;;;;;;;;;;3581909;40;20040;-60
2021/07/11 17:47:55;;;;;;;4.70;2.00;;;;;;;;;;3584094;40;20067;-61
2021/07/11 17:50:20;;;;;;;3.42;1.92;;;;;;;;;;3584719;40;20072;-61
2021/07/11 17:52:46;;;;;;;2.83;1.73;;;;;;;;;;3583994;40;20049;-61
2021/07/11 17:55:13;;;;;;;2.97;1.90;;;;;;;;;;3582980;40;20076;-60
2021/07/11 17:57:38;;;;;;;4.00;2.03;;;;;;;;;;3583128;40;20037;-61
2021/07/11 18:00:07;;;;;;;3.75;2.15;;;;;;;;;;3585173;40;20036;-61
2021/07/11 18:02:32;;;;;;;3.28;2.13;;;;;;;;;;3576753;40;20327;-61
2021/07/11 18:04:58;;;;;;;10.38;2.17;;;;;;;;;;3583489;40;20036;-60
2021/07/11 18:07:23;;;;;;;3.60;2.00;;;;;;;;;;3582965;40;20024;-61
2021/07/11 18:09:49;;;;;;;2.97;2.00;;;;;;;;;;3582405;40;20393;-61
2021/07/11 18:12:15;;;;;;;7.07;1.98;;;;;;;;;;3584978;40;20134;-61
2021/07/11 18:14:40;;;;;;;3.08;2.05;;;;;;;;;;3584585;40;20411;-61
2021/07/11 18:17:06;;;;;;;4.10;2.30;;;;;;;;;;3584733;40;20033;-61
2021/07/11 18:19:31;;;;;;;3.83;2.08;;;;;;;;;;3583249;40;20072;-61
2021/07/11 18:21:57;;;;;;;3.88;1.85;;;;;;;;;;3584686;40;20125;-60
2021/07/11 18:24:22;;;;;;;5.82;2.28;;;;;;;;;;3584969;40;20036;-60
2021/07/11 18:26:48;;;;;;;3.28;1.90;;;;;;;;;;3583095;40;20299;-60
2021/07/11 18:29:13;;;;;;;7.07;2.67;;;;;;;;;;3584729;40;20189;-60
2021/07/11 18:31:39;;;;;;;3.95;2.20;;;;;;;;;;3584024;40;20053;-60
2021/07/11 18:34:04;;;;;;;3.80;2.42;;;;;;;;;;3582514;40;20021;-60
2021/07/11 18:36:30;;;;;;;5.82;2.80;;;;;;;;;;3584365;40;20029;-60
2021/07/11 18:38:55;;;;;;;3.90;2.55;;;;;;;;;;3584027;40;20040;-61
2021/07/11 18:41:21;;;;;;;8.00;3.08;;;;;;;;;;3582152;40;20055;-60
2021/07/11 18:43:46;;;;;;;15.05;4.22;;;;;;;;;;3584789;40;20065;-60
2021/07/11 18:46:12;;;;;;;5.78;4.40;;;;;;;;;;3585917;40;20037;-61
2021/07/11 18:48:37;;;;;;;6.50;4.43;;;;;;;;;;3584095;40;20037;-59
2021/07/11 18:51:04;;;;;;;5.38;4.18;;;;;;;;;;3573054;40;20096;-59
2021/07/11 18:53:29;;;;;;;7.90;4.60;;;;;;;;;;3583536;40;20051;-60
2021/07/11 18:55:56;;;;;;;6.25;4.40;;;;;;;;;;3584169;40;20248;-60
2021/07/11 18:58:22;;;;;;;5.97;3.97;;;;;;;;;;3583823;40;20036;-60
2021/07/11 19:00:49;;;;;;;6.18;4.00;;;;;;;;;;3583701;40;20090;-60
2021/07/11 19:03:15;;;;;;;5.65;3.83;;;;;;;;;;3583542;40;20073;-60
2021/07/11 19:05:41;;;;;;;5.82;4.68;;;;;;;;;;3582817;40;20043;-60
2021/07/11 19:08:07;;;;;;;5.53;4.55;;;;;;;;;;3585097;40;20040;-60
2021/07/11 19:10:33;;;;;;;5.65;4.15;;;;;;;;;;3582966;40;20037;-60
2021/07/11 19:12:59;;;;;;;9.25;5.05;;;;;;;;;;3582962;40;20059;-60
2021/07/11 19:15:25;;;;;;;6.38;5.15;;;;;;;;;;3583752;40;20061;-60
2021/07/11 19:17:51;;;;;;;6.90;5.88;;;;;;;;;;3584829;40;20059;-60
2021/07/11 19:20:18;;;;;;;6.32;4.63;;;;;;;;;;3585112;40;20049;-60
2021/07/11 19:22:44;;;;;;;9.30;5.40;;;;;;;;;;3582669;40;20059;-60